createdAt,value
2023-05-09T00:02:25.346Z,11.42
2023-05-09T00:04:51.831Z,11.42
2023-05-09T00:07:18.168Z,11.40
2023-05-09T00:09:44.570Z,11.39
2023-05-09T00:12:12.272Z,11.40
2023-05-09T00:14:40.621Z,11.37
2023-05-09T00:17:07.784Z,11.36
2023-05-09T00:19:37.913Z,11.38
2023-05-09T00:22:04.226Z,11.42
2023-05-09T00:24:30.573Z,11.43
2023-05-09T00:26:56.929Z,11.40
2023-05-09T00:29:23.260Z,11.32
2023-05-09T00:31:49.593Z,11.36
2023-05-09T00:34:16.001Z,11.39
2023-05-09T00:36:42.380Z,11.39
2023-05-09T00:39:09.635Z,11.39
2023-05-09T00:41:40.111Z,11.41
2023-05-09T00:44:06.928Z,11.43
2023-05-09T00:46:33.323Z,11.41
2023-05-09T00:49:00.294Z,11.41
2023-05-09T00:51:28.456Z,11.44
2023-05-09T00:53:59.969Z,11.45
2023-05-09T00:56:26.743Z,11.45
2023-05-09T00:58:53.174Z,11.48
2023-05-09T01:01:19.556Z,11.46
2023-05-09T01:03:47.317Z,11.46
2023-05-09T01:06:13.713Z,11.53
2023-05-09T01:08:59.612Z,11.52
2023-05-09T01:11:34.589Z,11.51
2023-05-09T01:14:10.101Z,11.52
2023-05-09T01:16:36.442Z,11.58
2023-05-09T01:19:14.329Z,11.60
2023-05-09T01:21:42.556Z,11.64
2023-05-09T01:24:23.952Z,11.66
2023-05-09T01:27:09.220Z,11.65
2023-05-09T01:29:38.629Z,11.65
2023-05-09T01:32:08.130Z,11.62
2023-05-09T01:34:35.443Z,11.67
2023-05-09T01:37:04.547Z,11.63
2023-05-09T01:39:32.780Z,11.64
2023-05-09T01:42:01.343Z,11.62
2023-05-09T01:44:31.076Z,11.61
2023-05-09T01:46:58.822Z,11.61
2023-05-09T01:49:26.203Z,11.62
2023-05-09T01:51:54.038Z,11.63
2023-05-09T01:54:22.185Z,11.65
2023-05-09T01:56:49.589Z,11.66
2023-05-09T01:59:16.316Z,11.70
2023-05-09T02:01:43.420Z,11.70
2023-05-09T02:04:10.060Z,11.71
2023-05-09T02:06:36.764Z,11.72
2023-05-09T02:09:08.412Z,11.75
2023-05-09T02:11:34.714Z,11.75
2023-05-09T02:14:01.023Z,11.80
2023-05-09T02:16:27.857Z,11.75
2023-05-09T02:18:54.228Z,11.77
2023-05-09T02:21:20.598Z,11.77
2023-05-09T02:23:47.103Z,11.79
2023-05-09T02:26:13.773Z,11.78
2023-05-09T02:28:40.850Z,11.96
2023-05-09T02:31:08.288Z,11.79
2023-05-09T02:33:35.867Z,11.72
2023-05-09T02:36:02.493Z,11.69
2023-05-09T02:38:32.181Z,11.71
2023-05-09T02:40:58.483Z,11.67
2023-05-09T02:43:24.811Z,11.67
2023-05-09T02:45:51.140Z,11.72
2023-05-09T02:48:17.696Z,11.64
2023-05-09T02:50:44.327Z,11.61
2023-05-09T02:53:10.782Z,11.78
2023-05-09T02:55:37.290Z,12.09
2023-05-09T02:58:13.596Z,11.79
2023-05-09T03:00:41.005Z,11.69
2023-05-09T03:03:07.459Z,11.80
2023-05-09T03:05:34.018Z,11.77
2023-05-09T03:08:00.324Z,11.76
2023-05-09T03:10:26.672Z,11.67
2023-05-09T03:12:53.009Z,11.53
2023-05-09T03:15:26.130Z,11.42
2023-05-09T03:17:52.487Z,11.46
2023-05-09T03:20:18.886Z,11.42
2023-05-09T03:22:45.337Z,11.40
2023-05-09T03:25:11.789Z,11.38
2023-05-09T03:27:38.157Z,11.41
2023-05-09T03:30:04.694Z,11.33
2023-05-09T03:32:31.177Z,11.35
2023-05-09T03:34:57.537Z,11.39
2023-05-09T03:37:26.258Z,11.45
2023-05-09T03:39:53.334Z,11.40
2023-05-09T03:42:19.676Z,11.39
2023-05-09T03:44:46.438Z,11.43
2023-05-09T03:47:12.738Z,11.42
2023-05-09T03:49:39.042Z,11.36
2023-05-09T03:52:06.388Z,11.40
2023-05-09T03:54:32.693Z,11.45
2023-05-09T03:56:59.070Z,11.35
2023-05-09T03:59:25.512Z,11.36
2023-05-09T04:01:52.274Z,11.41
2023-05-09T04:04:18.627Z,11.41
2023-05-09T04:06:44.992Z,11.42
2023-05-09T04:09:11.326Z,11.47
2023-05-09T04:11:37.685Z,11.48
2023-05-09T04:14:07.006Z,11.47
2023-05-09T04:16:33.574Z,11.48
2023-05-09T04:18:59.921Z,11.43
2023-05-09T04:21:26.234Z,11.68
2023-05-09T04:23:56.620Z,11.74
2023-05-09T04:26:22.956Z,11.71
2023-05-09T04:28:49.253Z,11.48
2023-05-09T04:31:15.742Z,11.38
2023-05-09T04:33:42.117Z,11.34
2023-05-09T04:36:08.981Z,11.30
2023-05-09T04:38:35.471Z,11.40
2023-05-09T04:41:01.790Z,11.30
2023-05-09T04:43:28.244Z,11.33
2023-05-09T04:45:54.657Z,11.39
2023-05-09T04:48:21.020Z,11.38
2023-05-09T04:50:48.594Z,11.52
2023-05-09T04:53:15.011Z,11.52
2023-05-09T04:55:41.311Z,11.50
2023-05-09T04:58:09.100Z,11.57
2023-05-09T05:00:35.712Z,11.69
2023-05-09T05:03:02.082Z,11.79
2023-05-09T05:05:28.657Z,11.94
2023-05-09T05:07:55.505Z,12.05
2023-05-09T05:10:21.937Z,12.24
2023-05-09T05:12:48.356Z,12.15
2023-05-09T05:15:16.017Z,12.24
2023-05-09T05:17:42.596Z,12.27
2023-05-09T05:20:10.570Z,12.31
2023-05-09T05:22:36.946Z,12.25
2023-05-09T05:25:06.360Z,12.36
2023-05-09T05:27:32.689Z,12.38
2023-05-09T05:29:59.032Z,12.41
2023-05-09T05:32:25.513Z,12.40
2023-05-09T05:34:51.910Z,12.42
2023-05-09T05:37:18.240Z,12.44
2023-05-09T05:39:44.564Z,12.57
2023-05-09T05:42:10.886Z,12.64
2023-05-09T05:44:37.189Z,12.68
2023-05-09T05:47:03.505Z,12.75
2023-05-09T05:49:29.836Z,12.98
2023-05-09T05:51:56.145Z,13.01
2023-05-09T05:54:22.461Z,12.94
2023-05-09T05:56:48.979Z,12.97
2023-05-09T05:59:16.223Z,13.06
2023-05-09T06:01:42.593Z,13.08
2023-05-09T06:04:08.995Z,13.13
2023-05-09T06:06:35.422Z,13.15
2023-05-09T06:09:01.779Z,13.19
2023-05-09T06:11:28.342Z,13.32
2023-05-09T06:13:54.671Z,13.37
2023-05-09T06:16:23.112Z,13.41
2023-05-09T06:18:57.755Z,13.51
2023-05-09T06:21:24.153Z,13.73
2023-05-09T06:24:06.542Z,13.85
2023-05-09T06:26:36.535Z,13.93
2023-05-09T06:29:03.234Z,14.06
2023-05-09T06:31:30.770Z,14.04
2023-05-09T06:33:58.170Z,14.20
2023-05-09T06:36:26.199Z,14.37
2023-05-09T06:38:52.508Z,14.43
2023-05-09T06:41:18.834Z,14.53
2023-05-09T06:43:45.621Z,14.46
2023-05-09T06:46:14.084Z,14.26
2023-05-09T06:48:40.791Z,14.19
2023-05-09T06:51:07.464Z,14.14
2023-05-09T06:53:33.965Z,14.19
2023-05-09T06:56:00.482Z,14.27
2023-05-09T06:58:27.479Z,14.80
2023-05-09T07:00:53.995Z,14.50
2023-05-09T07:03:20.328Z,14.96
2023-05-09T07:05:46.741Z,14.95
2023-05-09T07:08:13.093Z,15.20
2023-05-09T07:10:39.618Z,15.20
2023-05-09T07:13:06.191Z,15.36
2023-05-09T07:15:41.157Z,15.72
2023-05-09T07:18:08.845Z,15.60
2023-05-09T07:20:35.241Z,15.65
2023-05-09T07:23:03.966Z,15.63
2023-05-09T07:25:30.500Z,15.62
2023-05-09T07:27:56.862Z,15.75
2023-05-09T07:30:23.263Z,15.62
2023-05-09T07:32:49.599Z,15.97
2023-05-09T07:35:16.227Z,15.80
2023-05-09T07:37:42.659Z,15.65
2023-05-09T07:40:09.568Z,15.63
2023-05-09T07:42:35.959Z,15.59
2023-05-09T07:45:04.391Z,15.37
2023-05-09T07:47:30.707Z,15.27
2023-05-09T07:49:57.028Z,15.35
2023-05-09T07:52:23.564Z,15.13
2023-05-09T07:54:49.985Z,14.49
2023-05-09T07:57:16.617Z,15.14
2023-05-09T07:59:42.900Z,15.46
2023-05-09T08:02:09.296Z,15.27
2023-05-09T08:04:38.225Z,15.08
2023-05-09T08:07:04.890Z,15.29
2023-05-09T08:09:31.202Z,15.29
2023-05-09T08:11:57.517Z,15.35
2023-05-09T08:14:23.913Z,15.05
2023-05-09T08:16:50.238Z,15.00
2023-05-09T08:19:16.594Z,15.06
2023-05-09T08:21:42.922Z,15.00
2023-05-09T08:24:09.676Z,15.06
2023-05-09T08:26:35.983Z,14.94
2023-05-09T08:29:02.340Z,14.94
2023-05-09T08:31:28.795Z,14.94
2023-05-09T08:33:55.307Z,14.95
2023-05-09T08:36:21.606Z,14.84
2023-05-09T08:38:47.927Z,15.20
2023-05-09T08:41:14.438Z,15.17
2023-05-09T08:43:40.845Z,15.29
2023-05-09T08:46:08.617Z,15.49
2023-05-09T08:48:38.409Z,15.57
2023-05-09T08:51:05.212Z,15.50
2023-05-09T08:53:32.016Z,15.55
2023-05-09T08:55:58.958Z,15.89
2023-05-09T08:58:25.308Z,15.84
2023-05-09T09:00:53.407Z,15.89
2023-05-09T09:03:20.140Z,16.14
2023-05-09T09:05:47.828Z,16.11
2023-05-09T09:08:14.343Z,16.31
2023-05-09T09:10:47.385Z,16.04
2023-05-09T09:13:15.056Z,16.02
2023-05-09T09:15:43.186Z,16.04
2023-05-09T09:18:10.314Z,16.34
2023-05-09T09:20:47.976Z,16.73
2023-05-09T09:23:17.895Z,16.94
2023-05-09T09:25:45.778Z,16.86
2023-05-09T09:28:12.524Z,17.32
2023-05-09T09:30:47.510Z,17.64
2023-05-09T09:33:23.886Z,17.63
2023-05-09T09:35:51.427Z,17.52
2023-05-09T09:38:18.690Z,17.87
2023-05-09T09:40:49.332Z,17.93
2023-05-09T09:43:15.954Z,17.71
2023-05-09T09:45:42.288Z,17.53
2023-05-09T09:48:08.647Z,17.76
2023-05-09T09:50:35.061Z,17.92
2023-05-09T09:53:05.557Z,18.24
2023-05-09T09:55:32.007Z,17.97
2023-05-09T09:57:58.438Z,17.73
2023-05-09T10:00:26.500Z,18.02
2023-05-09T10:02:56.104Z,17.93
2023-05-09T10:05:26.659Z,17.66
2023-05-09T10:07:58.719Z,17.65
2023-05-09T10:10:29.157Z,17.87
2023-05-09T10:12:59.480Z,18.19
2023-05-09T10:17:58.746Z,18.58
2023-05-09T10:20:25.309Z,18.59
2023-05-09T10:22:56.201Z,18.73
2023-05-09T10:25:25.859Z,18.55
2023-05-09T10:27:53.953Z,18.54
2023-05-09T10:30:27.027Z,18.57
2023-05-09T10:33:03.564Z,18.64
2023-05-09T10:35:32.951Z,18.66
2023-05-09T10:37:59.851Z,18.70
2023-05-09T10:40:27.536Z,18.80
2023-05-09T10:42:53.843Z,18.79
2023-05-09T10:45:21.488Z,18.87
2023-05-09T10:47:49.762Z,18.92
2023-05-09T10:50:21.214Z,18.79
2023-05-09T10:53:11.035Z,19.12
2023-05-09T10:55:38.598Z,19.24
2023-05-09T10:58:20.333Z,19.14
2023-05-09T11:00:47.659Z,18.98
2023-05-09T11:03:14.107Z,19.11
2023-05-09T11:05:40.792Z,19.07
2023-05-09T11:08:25.504Z,19.05
2023-05-09T11:10:52.580Z,19.02
2023-05-09T11:13:20.120Z,19.22
2023-05-09T11:16:01.814Z,19.36
2023-05-09T11:18:33.420Z,19.56
2023-05-09T11:20:59.916Z,19.67
2023-05-09T11:23:27.333Z,19.87
2023-05-09T11:25:55.899Z,19.97
2023-05-09T11:28:27.016Z,20.12
2023-05-09T11:30:54.848Z,20.12
2023-05-09T11:33:23.893Z,20.10
2023-05-09T11:36:08.967Z,20.01
2023-05-09T11:38:42.654Z,19.96
2023-05-09T11:41:09.239Z,19.95
2023-05-09T11:43:36.663Z,19.80
2023-05-09T11:46:06.244Z,20.06
2023-05-09T11:48:37.539Z,19.73
2023-05-09T11:51:04.657Z,20.32
2023-05-09T11:53:31.682Z,20.37
2023-05-09T11:55:58.055Z,20.26
2023-05-09T11:58:24.354Z,20.66
2023-05-09T12:00:51.669Z,20.80
2023-05-09T12:03:18.938Z,20.72
2023-05-09T12:05:48.081Z,20.58
2023-05-09T12:08:15.430Z,20.30
2023-05-09T12:10:41.715Z,20.03
2023-05-09T12:13:10.316Z,19.73
2023-05-09T12:15:37.868Z,19.64
2023-05-09T12:18:05.482Z,20.12
2023-05-09T12:20:41.159Z,20.17
2023-05-09T12:23:08.767Z,20.14
2023-05-09T12:25:35.084Z,20.39
2023-05-09T12:28:01.938Z,20.46
2023-05-09T12:30:29.609Z,20.83
2023-05-09T12:32:56.221Z,20.97
2023-05-09T12:35:25.521Z,20.80
2023-05-09T12:37:56.228Z,20.77
2023-05-09T12:40:22.692Z,21.14
2023-05-09T12:43:00.938Z,21.24
2023-05-09T12:45:27.498Z,21.32
2023-05-09T12:47:53.935Z,21.20
2023-05-09T12:50:20.469Z,21.06
2023-05-09T12:53:02.042Z,20.89
2023-05-09T12:55:29.690Z,20.60
2023-05-09T12:58:00.326Z,20.39
2023-05-09T13:00:26.689Z,20.28
2023-05-09T13:02:53.174Z,20.77
2023-05-09T13:05:20.803Z,20.89
2023-05-09T13:07:48.449Z,21.21
2023-05-09T13:10:15.775Z,21.36
2023-05-09T13:12:45.337Z,21.52
2023-05-09T13:15:12.128Z,21.54
2023-05-09T13:17:38.782Z,21.33
2023-05-09T13:20:05.627Z,21.65
2023-05-09T13:22:32.137Z,21.70
2023-05-09T13:24:58.566Z,21.69
2023-05-09T13:27:24.892Z,21.71
2023-05-09T13:29:51.198Z,21.55
2023-05-09T13:32:17.487Z,21.56
2023-05-09T13:34:43.866Z,21.29
2023-05-09T13:37:14.163Z,21.29
2023-05-09T13:39:40.578Z,21.42
2023-05-09T13:42:15.933Z,21.49
2023-05-09T13:44:43.682Z,21.65
2023-05-09T13:47:11.127Z,21.85
2023-05-09T13:49:38.298Z,22.26
2023-05-09T13:52:05.128Z,22.43
2023-05-09T13:54:35.032Z,22.45
2023-05-09T13:57:02.227Z,22.33
2023-05-09T13:59:28.880Z,22.46
2023-05-09T14:01:57.507Z,22.38
2023-05-09T14:04:24.096Z,22.20
2023-05-09T14:06:50.495Z,22.13
2023-05-09T14:09:17.203Z,21.82
2023-05-09T14:11:43.523Z,21.75
2023-05-09T14:14:09.866Z,21.97
2023-05-09T14:16:36.208Z,21.90
2023-05-09T14:19:02.611Z,22.14
2023-05-09T14:21:28.945Z,22.32
2023-05-09T14:23:55.255Z,21.96
2023-05-09T14:26:22.128Z,21.54
2023-05-09T14:28:48.583Z,21.54
2023-05-09T14:31:15.076Z,21.56
2023-05-09T14:33:41.407Z,21.46
2023-05-09T14:36:07.834Z,21.33
2023-05-09T14:38:34.332Z,21.25
2023-05-09T14:41:02.303Z,21.33
2023-05-09T14:43:28.655Z,21.00
2023-05-09T14:45:55.274Z,21.23
2023-05-09T14:48:21.949Z,21.31
2023-05-09T14:50:49.662Z,21.43
2023-05-09T14:53:16.556Z,21.61
2023-05-09T14:55:42.905Z,21.54
2023-05-09T14:58:09.399Z,21.46
2023-05-09T15:00:35.741Z,21.51
2023-05-09T15:03:02.178Z,21.66
2023-05-09T15:05:28.540Z,21.51
2023-05-09T15:07:54.919Z,21.42
2023-05-09T15:10:21.309Z,21.36
2023-05-09T15:12:47.612Z,21.65
2023-05-09T15:15:15.232Z,21.46
2023-05-09T15:17:42.959Z,21.85
2023-05-09T15:20:11.772Z,21.78
2023-05-09T15:22:38.090Z,21.68
2023-05-09T15:25:06.189Z,21.57
2023-05-09T15:27:34.826Z,21.70
2023-05-09T15:30:01.224Z,21.71
2023-05-09T15:32:28.291Z,21.74
2023-05-09T15:34:54.644Z,21.73
2023-05-09T15:37:22.084Z,21.51
2023-05-09T15:39:48.400Z,21.33
2023-05-09T15:42:15.155Z,21.06
2023-05-09T15:44:42.365Z,21.17
2023-05-09T15:47:09.280Z,20.99
2023-05-09T15:49:36.012Z,20.96
2023-05-09T15:52:03.502Z,20.93
2023-05-09T15:54:32.812Z,20.95
2023-05-09T15:56:59.396Z,20.85
2023-05-09T15:59:26.155Z,20.93
2023-05-09T16:01:52.595Z,20.85
2023-05-09T16:04:19.012Z,20.77
2023-05-09T16:06:45.435Z,20.73
2023-05-09T16:09:11.935Z,20.54
2023-05-09T16:11:38.305Z,20.51
2023-05-09T16:14:07.446Z,20.53
2023-05-09T16:16:33.918Z,20.44
2023-05-09T16:19:00.362Z,20.33
2023-05-09T16:21:29.113Z,20.26
2023-05-09T16:23:57.698Z,20.37
2023-05-09T16:26:24.005Z,20.18
2023-05-09T16:28:50.430Z,19.98
2023-05-09T16:31:16.813Z,20.11
2023-05-09T16:33:43.921Z,19.84
2023-05-09T16:36:10.249Z,19.90
2023-05-09T16:38:36.813Z,19.75
2023-05-09T16:41:03.189Z,19.87
2023-05-09T16:43:30.667Z,19.54
2023-05-09T16:45:57.439Z,19.56
2023-05-09T16:48:23.880Z,19.44
2023-05-09T16:50:53.474Z,19.36
2023-05-09T16:53:22.598Z,19.33
2023-05-09T16:55:55.859Z,19.28
2023-05-09T16:58:22.252Z,19.20
2023-05-09T17:00:49.996Z,19.35
2023-05-09T17:03:16.352Z,19.25
2023-05-09T17:05:42.670Z,19.29
2023-05-09T17:08:08.989Z,19.16
2023-05-09T17:10:37.786Z,19.12
2023-05-09T17:13:07.609Z,18.92
2023-05-09T17:15:34.473Z,18.87
2023-05-09T17:18:12.310Z,18.79
2023-05-09T17:20:40.007Z,18.87
2023-05-09T17:23:06.326Z,18.94
2023-05-09T17:25:33.394Z,18.76
2023-05-09T17:27:59.723Z,18.65
2023-05-09T17:30:26.202Z,18.57
2023-05-09T17:32:52.589Z,18.51
2023-05-09T17:35:20.689Z,18.43
2023-05-09T17:37:47.011Z,18.36
2023-05-09T17:40:13.463Z,18.24
2023-05-09T17:42:40.298Z,18.16
2023-05-09T17:45:06.951Z,18.08
2023-05-09T17:47:33.387Z,18.03
2023-05-09T17:49:59.701Z,17.98
2023-05-09T17:52:26.016Z,17.93
2023-05-09T17:54:52.319Z,17.92
2023-05-09T17:57:18.626Z,17.78
2023-05-09T17:59:46.683Z,17.69
2023-05-09T18:02:14.108Z,17.99
2023-05-09T18:04:40.441Z,17.86
2023-05-09T18:07:08.278Z,17.73
2023-05-09T18:09:34.637Z,17.45
2023-05-09T18:12:00.922Z,17.19
2023-05-09T18:14:27.246Z,16.86
2023-05-09T18:16:53.563Z,16.98
2023-05-09T18:19:19.863Z,16.78
2023-05-09T18:21:46.824Z,16.32
2023-05-09T18:24:14.343Z,16.24
2023-05-09T18:26:41.839Z,15.66
2023-05-09T18:29:09.495Z,15.48
2023-05-09T18:31:38.769Z,15.69
2023-05-09T18:34:05.920Z,15.40
2023-05-09T18:36:32.215Z,15.11
2023-05-09T18:38:59.771Z,14.64
2023-05-09T18:41:29.123Z,14.75
2023-05-09T18:43:57.264Z,14.50
2023-05-09T18:46:28.079Z,14.01
2023-05-09T18:48:55.444Z,13.99
2023-05-09T18:51:22.901Z,14.07
2023-05-09T18:53:49.311Z,14.25
2023-05-09T18:56:18.864Z,14.53
2023-05-09T18:58:48.774Z,14.47
2023-05-09T19:01:15.205Z,13.10
2023-05-09T19:03:46.016Z,14.00
2023-05-09T19:06:13.411Z,13.91
2023-05-09T19:08:41.553Z,13.60
2023-05-09T19:11:08.049Z,13.63
2023-05-09T19:13:38.157Z,13.33
2023-05-09T19:16:04.992Z,13.29
2023-05-09T19:18:31.282Z,13.11
2023-05-09T19:20:57.847Z,13.14
2023-05-09T19:23:26.566Z,12.84
2023-05-09T19:25:54.000Z,12.82
2023-05-09T19:28:21.251Z,12.79
2023-05-09T19:30:47.608Z,12.70
2023-05-09T19:33:13.985Z,12.66
2023-05-09T19:35:43.782Z,12.57
2023-05-09T19:38:14.316Z,12.66
2023-05-09T19:40:41.062Z,12.59
2023-05-09T19:43:07.429Z,12.69
2023-05-09T19:45:33.737Z,13.05
2023-05-09T19:48:00.668Z,12.74
2023-05-09T19:50:27.201Z,12.82
2023-05-09T19:52:53.544Z,12.81
2023-05-09T19:55:23.415Z,12.68
2023-05-09T19:57:52.016Z,12.44
2023-05-09T20:00:18.726Z,12.68
2023-05-09T20:02:45.444Z,12.69
2023-05-09T20:05:11.915Z,12.62
2023-05-09T20:07:38.222Z,12.71
2023-05-09T20:10:04.708Z,12.32
2023-05-09T20:12:32.011Z,12.40
2023-05-09T20:14:58.323Z,12.55
2023-05-09T20:17:24.662Z,12.70
2023-05-09T20:19:52.373Z,12.47
2023-05-09T20:22:18.701Z,12.64
2023-05-09T20:24:45.219Z,12.54
2023-05-09T20:27:13.328Z,12.49
2023-05-09T20:29:39.747Z,12.45
2023-05-09T20:32:06.365Z,12.43
2023-05-09T20:34:32.815Z,12.40
2023-05-09T20:36:59.089Z,12.26
2023-05-09T20:39:27.511Z,12.28
2023-05-09T20:41:55.730Z,12.18
2023-05-09T20:44:22.061Z,12.35
2023-05-09T20:46:51.398Z,12.37
2023-05-09T20:49:18.400Z,12.38
2023-05-09T20:51:48.887Z,12.40
2023-05-09T20:54:15.339Z,12.52
2023-05-09T20:56:43.708Z,12.58
2023-05-09T20:59:10.028Z,12.71
2023-05-09T21:01:36.869Z,12.75
2023-05-09T21:04:10.560Z,12.42
2023-05-09T21:06:36.998Z,12.53
2023-05-09T21:09:03.794Z,12.73
2023-05-09T21:11:30.226Z,12.43
2023-05-09T21:13:56.583Z,12.52
2023-05-09T21:16:23.186Z,12.71
2023-05-09T21:18:49.642Z,12.53
2023-05-09T21:21:16.023Z,12.67
2023-05-09T21:23:42.402Z,12.35
2023-05-09T21:26:08.971Z,12.42
2023-05-09T21:28:35.273Z,12.29
2023-05-09T21:31:02.003Z,12.48
2023-05-09T21:33:31.520Z,12.57
2023-05-09T21:35:59.114Z,12.63
2023-05-09T21:38:25.466Z,12.53
2023-05-09T21:40:51.815Z,12.30
2023-05-09T21:43:18.312Z,12.31
2023-05-09T21:45:44.984Z,12.33
2023-05-09T21:48:11.439Z,12.36
2023-05-09T21:50:37.796Z,12.40
2023-05-09T21:53:04.891Z,12.49
2023-05-09T21:55:33.271Z,12.48
2023-05-09T21:57:59.626Z,12.51
2023-05-09T22:00:25.987Z,12.50
2023-05-09T22:02:52.507Z,12.54
2023-05-09T22:05:19.046Z,12.64
2023-05-09T22:07:45.358Z,12.65
2023-05-09T22:10:12.123Z,12.65
2023-05-09T22:12:39.711Z,12.69
2023-05-09T22:15:06.464Z,12.68
2023-05-09T22:17:33.275Z,12.71
2023-05-09T22:19:59.615Z,12.72
2023-05-09T22:22:26.905Z,12.83
2023-05-09T22:24:53.377Z,12.82
2023-05-09T22:27:19.847Z,13.08
2023-05-09T22:29:46.520Z,12.96
2023-05-09T22:32:12.887Z,12.97
2023-05-09T22:34:39.244Z,12.85
2023-05-09T22:37:05.588Z,12.84
2023-05-09T22:39:31.901Z,12.66
2023-05-09T22:41:58.263Z,12.57
2023-05-09T22:44:24.764Z,12.81
2023-05-09T22:46:51.042Z,12.97
2023-05-09T22:49:17.674Z,12.68
2023-05-09T22:51:43.948Z,12.63
2023-05-09T22:54:10.252Z,12.60
2023-05-09T22:56:36.637Z,12.81
2023-05-09T22:59:02.939Z,12.55
2023-05-09T23:01:29.382Z,12.79
2023-05-09T23:03:55.754Z,12.61
2023-05-09T23:06:22.083Z,12.39
2023-05-09T23:08:48.427Z,12.55
2023-05-09T23:11:14.754Z,12.36
2023-05-09T23:13:41.162Z,12.30
2023-05-09T23:16:07.531Z,12.14
2023-05-09T23:18:33.894Z,11.98
2023-05-09T23:21:00.228Z,11.97
2023-05-09T23:23:26.552Z,12.16
2023-05-09T23:25:52.854Z,12.06
2023-05-09T23:28:21.455Z,12.12
2023-05-09T23:30:47.768Z,11.92
2023-05-09T23:33:14.079Z,11.89
2023-05-09T23:35:40.419Z,11.90
2023-05-09T23:38:06.715Z,11.89
2023-05-09T23:40:33.045Z,11.85
2023-05-09T23:42:59.349Z,11.88
2023-05-09T23:45:25.812Z,11.89
2023-05-09T23:47:52.323Z,11.89
2023-05-09T23:50:18.868Z,11.95
2023-05-09T23:52:48.332Z,11.94
2023-05-09T23:55:14.717Z,11.98
2023-05-09T23:57:41.650Z,12.02
